Time;durP1;ratioP1;P1;durP2;ratioP2;P2;SDS_P1;SDS_P2;PMS_P1;PMS_P2;Temp;Humidity;BMP_temperature;BMP_pressure;BME280_temperature;BME280_humidity;BME280_pressure;Samples;Min_cycle;Max_cycle;Signal;HPM_P1;HPM_P2
2021/12/24 00:02:25;;;;;;;85.40;33.53;;;;;;;-0.10;100.00;98063.50;4824169;29;20570;-64
2021/12/24 00:04:51;;;;;;;81.77;33.17;;;;;;;-0.16;100.00;98057.06;4824064;29;20033;-64
2021/12/24 00:07:17;;;;;;;80.67;32.83;;;;;;;-0.06;100.00;98056.97;4807900;29;20481;-63
2021/12/24 00:09:42;;;;;;;84.20;33.60;;;;;;;-0.17;100.00;98044.09;4824087;29;20381;-64
2021/12/24 00:12:15;;;;;;;89.10;35.20;;;;;;;-0.19;100.00;98043.44;4823973;29;20026;-65
2021/12/24 00:14:45;;;;;;;86.38;33.95;;;;;;;-0.27;100.00;98044.22;4807578;29;20062;-64
2021/12/24 00:17:14;;;;;;;90.20;34.08;;;;;;;-0.03;100.00;98043.53;4824283;29;20041;-64
2021/12/24 00:36:07;;;;;;;83.43;33.05;;;;;;;-0.08;100.00;98036.09;4810007;29;20045;-65
2021/12/24 00:38:33;;;;;;;84.40;33.47;;;;;;;-0.10;100.00;98024.94;4823919;29;20026;-64
2021/12/24 00:40:58;;;;;;;91.70;34.77;;;;;;;-0.22;100.00;98020.94;4823744;29;20113;-64
2021/12/24 00:43:26;;;;;;;88.33;33.43;;;;;;;-0.15;100.00;98008.03;4807223;29;20034;-64
2021/12/24 00:45:52;;;;;;;87.28;34.28;;;;;;;-0.11;100.00;98004.91;4823778;29;20030;-64
2021/12/24 00:48:19;;;;;;;90.03;34.90;;;;;;;-0.10;100.00;98008.34;4823750;29;20369;-64
2021/12/24 00:56:13;;;;;;;83.18;32.95;;;;;;;-0.13;100.00;98033.16;4803339;29;20548;-65
2021/12/24 00:58:40;;;;;;;83.72;33.60;;;;;;;-0.15;100.00;98036.91;4823611;29;20441;-65
2021/12/24 01:01:08;;;;;;;83.68;33.28;;;;;;;-0.11;100.00;98028.53;4823509;29;20397;-64
2021/12/24 01:03:36;;;;;;;88.03;33.38;;;;;;;-0.09;100.00;98023.13;4807132;29;20034;-64
2021/12/24 01:06:03;;;;;;;83.35;32.45;;;;;;;-0.19;100.00;98023.25;4806807;29;20038;-65
2021/12/24 01:08:28;;;;;;;86.88;34.35;;;;;;;-0.21;100.00;98006.81;4806893;29;20446;-64
2021/12/24 01:11:00;;;;;;;88.30;33.90;;;;;;;-0.19;100.00;98001.41;4823187;29;20079;-65
2021/12/24 01:13:28;;;;;;;85.07;36.05;;;;;;;-0.47;100.00;98006.03;4806761;29;20041;-64
2021/12/24 01:16:03;;;;;;;89.78;36.08;;;;;;;-0.38;100.00;98005.09;4823127;29;20042;-65
2021/12/24 01:18:40;;;;;;;87.65;34.65;;;;;;;-0.07;100.00;97995.75;4807790;29;20037;-64
2021/12/24 01:23:51;;;;;;;85.55;35.20;;;;;;;-0.14;100.00;97986.84;4823419;29;20050;-64
2021/12/24 01:26:36;;;;;;;83.72;34.58;;;;;;;-0.13;100.00;97982.44;4805823;29;20038;-65
2021/12/24 01:45:26;;;;;;;91.10;35.50;;;;;;;0.08;100.00;97942.63;4820921;29;20077;-65
2021/12/24 01:47:56;;;;;;;83.03;36.30;;;;;;;0.04;100.00;97944.75;4822694;29;20148;-65
2021/12/24 01:50:23;;;;;;;86.10;36.05;;;;;;;0.12;100.00;97941.31;4806251;29;20034;-65
2021/12/24 01:52:50;;;;;;;92.07;35.53;;;;;;;0.10;100.00;97935.41;4822715;29;20170;-65
2021/12/24 01:55:17;;;;;;;93.90;37.85;;;;;;;0.08;100.00;97932.13;4806183;29;20066;-65
2021/12/24 01:57:43;;;;;;;92.30;35.80;;;;;;;-0.04;100.00;97928.97;4822581;29;20068;-63
2021/12/24 02:00:14;;;;;;;92.43;37.20;;;;;;;-0.10;100.00;97919.09;4822513;29;20105;-63
2021/12/24 02:02:41;;;;;;;86.28;35.28;;;;;;;-0.14;100.00;97928.28;4822537;29;20027;-64
2021/12/24 02:05:07;;;;;;;91.68;35.90;;;;;;;-0.03;100.00;97907.81;4806006;29;20030;-63
2021/12/24 02:07:33;;;;;;;88.40;35.53;;;;;;;0.01;100.00;97905.66;4822365;29;20072;-63
2021/12/24 02:09:59;;;;;;;96.33;37.43;;;;;;;-0.09;100.00;97889.22;4822428;29;20034;-63
2021/12/24 02:12:25;;;;;;;98.77;40.10;;;;;;;0.00;100.00;97893.53;4806162;29;20034;-63
2021/12/24 02:14:55;;;;;;;93.50;36.88;;;;;;;-0.02;100.00;97895.50;4822422;29;20528;-63
2021/12/24 02:17:51;;;;;;;101.25;38.95;;;;;;;-0.22;100.00;97892.28;4822234;29;20063;-63
2021/12/24 02:28:39;;;;;;;102.80;40.55;;;;;;;0.10;100.00;97882.88;4822282;29;20045;-63
2021/12/24 02:31:10;;;;;;;108.03;42.25;;;;;;;0.18;100.00;97875.00;4822264;29;20036;-64
2021/12/24 02:33:37;;;;;;;110.75;43.03;;;;;;;0.16;100.00;97863.84;4822135;29;20034;-63
2021/12/24 02:36:04;;;;;;;110.93;42.15;;;;;;;0.25;100.00;97857.59;4822917;29;20045;-64
2021/12/24 02:38:30;;;;;;;111.50;42.95;;;;;;;0.26;100.00;97860.06;4825605;29;20113;-63
2021/12/24 02:40:55;;;;;;;100.07;41.05;;;;;;;0.10;100.00;97867.94;4825503;29;20083;-65
2021/12/24 02:43:23;;;;;;;98.63;40.27;;;;;;;0.19;100.00;97864.34;4809106;29;20058;-64
2021/12/24 02:45:52;;;;;;;103.38;40.95;;;;;;;0.24;100.00;97859.41;4825578;29;20034;-63
2021/12/24 02:56:27;;;;;;;110.43;42.50;;;;;;;0.54;100.00;97836.94;4825208;29;20086;-64
2021/12/24 02:58:53;;;;;;;101.57;40.60;;;;;;;0.51;100.00;97841.69;4809436;29;20412;-64
2021/12/24 03:01:22;;;;;;;104.85;42.28;;;;;;;0.58;100.00;97846.13;4825010;29;20038;-64
2021/12/24 03:03:48;;;;;;;101.65;42.55;;;;;;;0.48;100.00;97834.94;4809014;29;20499;-63
2021/12/24 03:06:16;;;;;;;97.28;40.88;;;;;;;0.32;100.00;97829.72;4825100;29;20543;-63
2021/12/24 03:08:41;;;;;;;109.50;42.25;;;;;;;0.15;100.00;97831.50;4824939;29;20145;-63
2021/12/24 03:11:07;;;;;;;101.87;40.97;;;;;;;0.21;100.00;97824.78;4825007;29;20113;-63
2021/12/24 03:13:35;;;;;;;105.33;42.27;;;;;;;0.30;100.00;97829.88;4808788;29;20532;-63
2021/12/24 03:16:01;;;;;;;103.28;42.72;;;;;;;0.30;100.00;97829.03;4793782;29;20038;-63
2021/12/24 03:18:30;;;;;;;105.55;40.78;;;;;;;0.39;100.00;97812.28;4808734;29;20037;-63
2021/12/24 03:21:11;;;;;;;105.70;41.80;;;;;;;0.26;100.00;97820.66;4824721;29;20059;-63
2021/12/24 03:23:43;;;;;;;100.07;41.25;;;;;;;0.21;100.00;97817.72;4824877;29;20549;-63
2021/12/24 03:26:14;;;;;;;106.57;41.47;;;;;;;0.33;100.00;97811.16;4824561;29;20065;-63
2021/12/24 03:28:40;;;;;;;114.18;44.53;;;;;;;0.36;100.00;97807.34;4824596;29;20049;-63
2021/12/24 03:31:07;;;;;;;107.88;43.28;;;;;;;0.33;100.00;97800.66;4824642;29;20095;-64
2021/12/24 03:33:34;;;;;;;117.05;45.13;;;;;;;0.28;100.00;97795.06;4824573;29;20412;-63
2021/12/24 03:36:02;;;;;;;111.53;46.05;;;;;;;0.24;100.00;97787.66;4808589;29;20064;-64
2021/12/24 03:38:28;;;;;;;115.32;44.53;;;;;;;0.21;100.00;97786.19;4824585;29;20054;-64
2021/12/24 03:40:54;;;;;;;106.50;42.47;;;;;;;0.08;100.00;97771.91;4824471;29;20034;-63
2021/12/24 03:43:19;;;;;;;106.23;42.90;;;;;;;0.10;100.00;97783.06;4824217;29;20087;-64
2021/12/24 03:46:00;;;;;;;120.13;46.57;;;;;;;0.08;100.00;97770.09;4824804;29;20401;-64
2021/12/24 03:48:40;;;;;;;112.63;43.67;;;;;;;0.14;100.00;97774.69;4823857;29;20034;-64
2021/12/24 03:56:28;;;;;;;113.18;45.10;;;;;;;0.24;100.00;97764.84;4824387;29;20067;-64
2021/12/24 03:58:54;;;;;;;119.57;45.42;;;;;;;0.35;100.00;97772.38;4808247;29;20042;-64
2021/12/24 04:01:20;;;;;;;111.03;44.57;;;;;;;0.31;100.00;97763.19;4824217;29;20373;-64
2021/12/24 04:03:45;;;;;;;112.30;43.73;;;;;;;0.28;100.00;97771.41;4824284;29;20034;-64
2021/12/24 04:06:11;;;;;;;115.87;44.17;;;;;;;0.37;100.00;97766.97;4824204;29;20034;-64
2021/12/24 04:08:37;;;;;;;127.30;48.70;;;;;;;0.28;100.00;97781.09;4824017;29;20034;-64
2021/12/24 04:11:04;;;;;;;128.77;47.33;;;;;;;0.35;100.00;97772.38;4807758;29;20030;-64
2021/12/24 04:13:30;;;;;;;132.45;48.38;;;;;;;0.37;100.00;97777.47;4808042;29;20503;-64
2021/12/24 04:15:56;;;;;;;129.80;48.90;;;;;;;0.49;100.00;97772.69;4824018;29;20046;-64
2021/12/24 04:26:37;;;;;;;123.65;46.53;;;;;;;0.71;100.00;97757.03;4823974;29;19919;-64
2021/12/24 04:29:03;;;;;;;128.88;49.60;;;;;;;0.54;100.00;97765.97;4823682;29;20105;-64
2021/12/24 04:31:39;;;;;;;121.95;49.22;;;;;;;0.60;100.00;97761.84;4823644;29;20102;-64
2021/12/24 04:34:06;;;;;;;121.97;47.55;;;;;;;0.54;100.00;97763.34;4823745;29;20158;-64
2021/12/24 05:03:11;;;;;;;135.02;48.45;;;;;;;0.93;100.00;97766.03;4823383;29;20095;-65
2021/12/24 05:05:46;;;;;;;132.10;49.58;;;;;;;0.88;100.00;97764.91;4823102;29;20078;-64
2021/12/24 05:08:22;;;;;;;125.80;51.00;;;;;;;0.87;100.00;97747.47;4823246;29;20066;-66
2021/12/24 05:10:51;;;;;;;134.30;51.45;;;;;;;0.82;100.00;97744.53;4807944;29;20026;-64
2021/12/24 05:13:20;;;;;;;133.23;49.28;;;;;;;0.89;100.00;97751.59;4823237;29;20046;-65
2021/12/24 05:15:49;;;;;;;123.57;49.78;;;;;;;0.95;100.00;97743.00;4823136;29;20031;-64
2021/12/24 05:23:25;;;;;;;136.20;49.42;;;;;;;0.73;100.00;97739.31;4823113;29;20281;-64
2021/12/24 05:25:51;;;;;;;132.87;48.83;;;;;;;0.80;100.00;97739.47;4823152;29;20046;-64
2021/12/24 05:28:17;;;;;;;131.93;50.07;;;;;;;0.77;100.00;97738.97;4823012;29;20119;-64
2021/12/24 05:30:43;;;;;;;134.43;49.67;;;;;;;0.65;100.00;97739.34;4822974;29;20496;-64
2021/12/24 05:33:15;;;;;;;141.23;49.43;;;;;;;0.78;100.00;97748.50;4823362;29;20036;-65
2021/12/24 05:35:42;;;;;;;135.60;50.00;;;;;;;0.76;100.00;97750.47;4823033;29;20050;-64
2021/12/24 05:38:08;;;;;;;138.15;53.20;;;;;;;0.89;100.00;97753.41;4806670;29;20442;-64
2021/12/24 05:40:34;;;;;;;141.67;50.70;;;;;;;0.79;100.00;97758.84;4806335;29;20033;-64
2021/12/24 05:42:59;;;;;;;140.27;51.43;;;;;;;0.81;100.00;97745.53;4822899;29;20042;-65
2021/12/24 05:45:25;;;;;;;138.73;50.17;;;;;;;0.68;100.00;97754.78;4822715;29;20058;-66
2021/12/24 05:47:51;;;;;;;139.25;50.50;;;;;;;0.77;100.00;97757.38;4822746;29;20027;-65
2021/12/24 05:50:17;;;;;;;143.35;51.83;;;;;;;0.76;100.00;97751.28;4822728;29;20026;-64
2021/12/24 05:52:43;;;;;;;136.17;50.50;;;;;;;0.75;100.00;97762.81;4822718;29;20087;-64
2021/12/24 05:55:10;;;;;;;141.20;50.20;;;;;;;0.84;100.00;97756.53;4822747;29;20813;-65
2021/12/24 05:57:35;;;;;;;137.18;50.03;;;;;;;0.87;100.00;97753.56;4822613;29;20038;-64
2021/12/24 06:00:05;;;;;;;130.80;50.10;;;;;;;0.83;100.00;97756.69;4822620;29;20030;-62
2021/12/24 06:02:34;;;;;;;139.53;50.07;;;;;;;0.84;100.00;97747.81;4822391;29;20488;-65
2021/12/24 06:04:59;;;;;;;137.00;50.83;;;;;;;0.78;100.00;97746.69;4822505;29;20647;-64
2021/12/24 06:07:25;;;;;;;140.67;50.47;;;;;;;0.90;100.00;97747.97;4822287;29;20121;-65
2021/12/24 06:09:50;;;;;;;145.30;51.97;;;;;;;0.80;100.00;97752.63;4822502;29;20034;-65
2021/12/24 06:12:16;;;;;;;141.03;51.17;;;;;;;0.86;100.00;97751.09;4822031;29;20512;-65
2021/12/24 06:14:45;;;;;;;145.43;52.97;;;;;;;0.91;100.00;97746.16;4822480;29;20034;-65
2021/12/24 06:17:15;;;;;;;185.40;69.97;;;;;;;0.98;100.00;97745.31;4822320;29;20037;-65
2021/12/24 06:19:42;;;;;;;140.20;51.30;;;;;;;0.99;100.00;97743.50;4822240;29;20038;-65
2021/12/24 06:22:08;;;;;;;135.02;49.15;;;;;;;0.93;100.00;97747.63;4822332;29;20031;-64
2021/12/24 06:24:34;;;;;;;133.02;47.65;;;;;;;0.85;100.00;97742.38;4822231;29;20062;-65
2021/12/24 06:27:00;;;;;;;135.90;49.60;;;;;;;1.00;100.00;97738.06;4821936;29;20531;-64
2021/12/24 06:29:25;;;;;;;145.07;50.93;;;;;;;1.05;100.00;97730.47;4821745;29;20465;-64
2021/12/24 06:31:52;;;;;;;141.67;50.03;;;;;;;0.99;100.00;97735.59;4821756;29;20099;-64
2021/12/24 06:34:19;;;;;;;142.97;53.60;;;;;;;0.90;100.00;97742.72;4822200;29;20087;-65
2021/12/24 06:36:48;;;;;;;132.17;51.63;;;;;;;1.02;100.00;97741.34;4822860;29;20364;-65
2021/12/24 06:39:15;;;;;;;144.48;51.83;;;;;;;0.92;100.00;97740.75;4826502;29;20349;-64
2021/12/24 06:41:40;;;;;;;141.90;52.03;;;;;;;0.90;100.00;97747.16;4821776;29;20381;-65
2021/12/24 06:44:10;;;;;;;142.23;50.30;;;;;;;0.98;100.00;97744.50;4821828;29;20057;-65
2021/12/24 06:46:36;;;;;;;146.93;51.08;;;;;;;0.85;100.00;97749.47;4806269;29;20530;-65
2021/12/24 06:49:02;;;;;;;145.40;51.60;;;;;;;1.03;100.00;97750.91;4821929;29;20030;-65
2021/12/24 06:51:28;;;;;;;147.90;53.10;;;;;;;0.99;100.00;97752.22;4821796;29;20050;-65
2021/12/24 06:53:55;;;;;;;143.55;55.58;;;;;;;0.85;100.00;97742.38;4822020;29;20077;-65
2021/12/24 06:56:21;;;;;;;140.20;53.85;;;;;;;0.87;100.00;97750.94;4821861;29;20422;-62
2021/12/24 06:58:46;;;;;;;148.13;54.53;;;;;;;0.86;100.00;97751.09;4821934;29;20030;-62
2021/12/24 07:01:13;;;;;;;143.23;52.90;;;;;;;0.98;100.00;97741.84;4822029;29;20509;-63
2021/12/24 07:03:38;;;;;;;147.95;54.47;;;;;;;1.04;100.00;97743.78;4821875;29;20065;-63
2021/12/24 07:06:04;;;;;;;160.07;60.40;;;;;;;1.03;100.00;97747.44;4821935;29;20062;-63
2021/12/24 07:08:31;;;;;;;156.75;57.67;;;;;;;0.89;100.00;97748.97;4821781;29;20095;-63
2021/12/24 07:10:57;;;;;;;149.03;55.90;;;;;;;0.95;100.00;97756.16;4821932;29;20400;-64
2021/12/24 07:13:22;;;;;;;159.25;55.85;;;;;;;0.82;100.00;97755.03;4820491;29;20282;-64
2021/12/24 07:15:48;;;;;;;150.27;52.67;;;;;;;1.02;100.00;97757.13;4822001;29;20045;-64
2021/12/24 07:18:14;;;;;;;146.73;54.20;;;;;;;1.03;100.00;97768.47;4805452;29;20114;-69
2021/12/24 07:20:40;;;;;;;147.87;53.00;;;;;;;0.86;100.00;97759.81;4821835;29;20034;-65
2021/12/24 07:23:06;;;;;;;150.80;54.43;;;;;;;0.86;100.00;97759.00;4822427;29;20038;-63
2021/12/24 07:25:32;;;;;;;149.83;53.80;;;;;;;0.90;100.00;97752.41;4824940;29;20041;-63
2021/12/24 07:27:57;;;;;;;140.27;53.63;;;;;;;0.90;100.00;97757.69;4824633;29;20543;-64
2021/12/24 07:30:23;;;;;;;140.10;56.20;;;;;;;0.92;100.00;97748.63;4824599;29;20302;-65
2021/12/24 07:32:49;;;;;;;142.70;55.90;;;;;;;0.87;100.00;97744.84;4824637;29;20155;-65
2021/12/24 07:35:16;;;;;;;147.00;55.00;;;;;;;0.94;100.00;97756.31;4824722;29;20113;-64
2021/12/24 07:37:43;;;;;;;134.53;53.50;;;;;;;0.89;100.00;97746.34;4808526;29;20045;-64
2021/12/24 07:40:13;;;;;;;134.83;52.13;;;;;;;0.86;100.00;97748.47;4824463;29;20270;-64
2021/12/24 07:42:39;;;;;;;127.67;50.47;;;;;;;0.79;100.00;97755.41;4824422;29;20322;-64
2021/12/24 07:45:07;;;;;;;137.73;51.73;;;;;;;0.80;100.00;97751.78;4808152;29;20690;-65
2021/12/24 07:47:37;;;;;;;139.93;51.20;;;;;;;0.80;100.00;97749.16;4824288;29;20030;-64
2021/12/24 07:50:17;;;;;;;133.33;50.50;;;;;;;0.83;100.00;97744.38;4808832;29;20274;-64
2021/12/24 07:52:44;;;;;;;120.32;49.28;;;;;;;1.00;100.00;97742.50;4824470;29;20767;-64
2021/12/24 07:55:10;;;;;;;127.37;49.93;;;;;;;1.11;100.00;97746.56;4808223;29;20514;-75
2021/12/24 07:57:40;;;;;;;129.10;52.50;;;;;;;1.13;100.00;97748.06;4824203;29;20305;-63
2021/12/24 08:00:09;;;;;;;125.87;48.50;;;;;;;1.09;100.00;97752.00;4824238;29;20305;-64
2021/12/24 08:02:34;;;;;;;132.40;52.27;;;;;;;1.16;100.00;97746.88;4807989;29;20357;-64
2021/12/24 08:05:00;;;;;;;122.47;50.27;;;;;;;1.21;100.00;97748.00;4824234;29;20703;-64
2021/12/24 08:07:27;;;;;;;119.97;48.87;;;;;;;1.16;100.00;97742.44;4792793;29;20038;-63
2021/12/24 08:09:53;;;;;;;117.20;47.93;;;;;;;1.13;100.00;97745.44;4824019;29;20031;-64
2021/12/24 08:12:28;;;;;;;108.50;45.53;;;;;;;1.08;100.00;97743.28;4824006;29;20327;-64
2021/12/24 08:14:54;;;;;;;118.33;45.70;;;;;;;1.02;100.00;97736.09;4824014;29;20038;-64
2021/12/24 08:17:19;;;;;;;113.40;47.07;;;;;;;1.10;100.00;97740.50;4807557;29;20628;-62
2021/12/24 08:19:45;;;;;;;110.47;46.37;;;;;;;1.18;100.00;97732.56;4807606;29;20145;-64
2021/12/24 08:22:11;;;;;;;111.03;46.33;;;;;;;1.29;100.00;97734.81;4823720;29;20030;-63
2021/12/24 08:24:37;;;;;;;106.67;45.40;;;;;;;1.12;100.00;97732.44;4823970;29;20046;-63
2021/12/24 08:27:03;;;;;;;117.00;49.00;;;;;;;1.28;100.00;97732.34;4823804;29;20305;-62
2021/12/24 08:29:29;;;;;;;108.43;46.07;;;;;;;1.34;100.00;97729.84;4823911;29;20472;-61
2021/12/24 08:31:55;;;;;;;104.90;46.20;;;;;;;1.47;100.00;97733.75;4823670;29;20314;-61
2021/12/24 08:34:21;;;;;;;105.40;44.40;;;;;;;1.28;100.00;97725.28;4823816;29;20297;-62
2021/12/24 08:36:49;;;;;;;113.03;47.07;;;;;;;1.56;100.00;97724.81;4823709;29;20389;-62
2021/12/24 08:39:16;;;;;;;102.87;44.13;;;;;;;1.36;100.00;97730.50;4823824;29;20354;-62
2021/12/24 08:41:43;;;;;;;110.57;46.17;;;;;;;1.51;100.00;97732.38;4823692;29;20277;-63
2021/12/24 08:44:09;;;;;;;102.07;44.27;;;;;;;1.65;100.00;97721.94;4823372;29;20294;-63
2021/12/24 08:46:36;;;;;;;108.43;43.40;;;;;;;1.43;100.00;97722.72;4823621;29;20330;-63
2021/12/24 08:49:03;;;;;;;100.60;44.47;;;;;;;1.43;100.00;97738.53;4823742;29;20446;-63
2021/12/24 08:51:29;;;;;;;106.17;45.13;;;;;;;1.65;100.00;97735.09;4823150;29;20338;-63
2021/12/24 08:53:55;;;;;;;99.10;44.17;;;;;;;1.41;100.00;97743.13;4823546;29;20270;-64
2021/12/24 08:56:22;;;;;;;103.87;44.03;;;;;;;1.48;100.00;97751.19;4823497;29;20040;-63
2021/12/24 08:58:48;;;;;;;93.50;42.27;;;;;;;1.43;100.00;97759.59;4806789;29;20038;-65
2021/12/24 09:01:13;;;;;;;95.73;40.87;;;;;;;1.30;100.00;97769.84;4821583;29;20280;-63
2021/12/24 09:03:40;;;;;;;99.33;41.27;;;;;;;1.40;100.00;97773.91;4821934;29;20800;-63
2021/12/24 09:06:06;;;;;;;96.53;42.67;;;;;;;1.51;100.00;97769.25;4823470;29;20846;-63
2021/12/24 09:08:32;;;;;;;95.23;40.73;;;;;;;1.59;100.00;97766.59;4822758;29;20290;-64
2021/12/24 09:10:58;;;;;;;90.60;41.07;;;;;;;1.67;100.00;97772.63;4821940;29;20045;-63
2021/12/24 09:13:23;;;;;;;100.13;43.03;;;;;;;1.78;100.00;97766.13;4822598;29;20064;-64
2021/12/24 09:15:49;;;;;;;100.27;43.67;;;;;;;1.94;100.00;97759.94;4822289;29;20197;-64
2021/12/24 09:18:15;;;;;;;103.63;45.10;;;;;;;2.00;100.00;97760.03;4836027;29;20033;-64
2021/12/24 09:20:43;;;;;;;95.70;43.33;;;;;;;1.84;100.00;97756.72;4822339;29;20360;-63
2021/12/24 09:23:10;;;;;;;103.63;41.03;;;;;;;1.99;100.00;97747.88;4822230;29;20038;-63
2021/12/24 09:25:36;;;;;;;88.57;40.73;;;;;;;1.62;100.00;97750.41;4822300;29;20299;-63
2021/12/24 09:28:02;;;;;;;102.67;41.67;;;;;;;1.99;100.00;97750.50;4822315;29;20285;-63
2021/12/24 09:30:28;;;;;;;93.23;40.20;;;;;;;2.15;100.00;97739.03;4821747;29;20103;-63
2021/12/24 09:32:54;;;;;;;97.17;41.03;;;;;;;2.19;100.00;97730.56;4823079;29;20286;-63
2021/12/24 09:35:21;;;;;;;93.47;40.10;;;;;;;2.39;100.00;97717.72;4821380;29;20556;-63
2021/12/24 09:37:50;;;;;;;97.47;41.13;;;;;;;2.25;100.00;97720.31;4822187;29;20274;-63
2021/12/24 09:40:18;;;;;;;93.50;43.33;;;;;;;2.21;100.00;97737.47;4822627;29;20334;-63
2021/12/24 09:42:44;;;;;;;92.20;43.07;;;;;;;2.22;100.00;97729.41;4822670;29;20292;-63
2021/12/24 09:45:11;;;;;;;98.03;41.77;;;;;;;1.70;100.00;97739.84;4822060;29;20298;-63
2021/12/24 09:47:38;;;;;;;105.30;45.73;;;;;;;2.16;100.00;97725.69;4822018;29;20033;-63
2021/12/24 09:50:06;;;;;;;114.00;48.33;;;;;;;2.10;100.00;97725.56;4822481;29;20678;-63
2021/12/24 09:52:33;;;;;;;113.77;47.47;;;;;;;2.27;100.00;97718.34;4822514;29;20681;-63
2021/12/24 09:55:07;;;;;;;115.97;48.00;;;;;;;2.22;100.00;97723.31;4822268;29;20685;-63
2021/12/24 09:57:33;;;;;;;113.33;48.63;;;;;;;2.34;100.00;97713.97;4822213;29;20266;-63
2021/12/24 09:59:58;;;;;;;109.67;47.73;;;;;;;2.21;100.00;97722.50;4822344;29;20270;-63
2021/12/24 10:02:28;;;;;;;114.20;47.10;;;;;;;2.28;100.00;97717.34;4822348;29;20034;-63
2021/12/24 10:04:54;;;;;;;107.57;47.80;;;;;;;2.32;100.00;97713.34;4806352;29;20489;-63
2021/12/24 10:07:24;;;;;;;106.10;47.17;;;;;;;2.39;100.00;97703.72;4822378;29;20282;-63
2021/12/24 10:09:51;;;;;;;105.83;45.37;;;;;;;2.46;100.00;97709.91;4822430;29;20137;-63
2021/12/24 10:12:24;;;;;;;108.20;46.70;;;;;;;2.42;100.00;97714.72;4821298;29;20364;-65
2021/12/24 10:14:53;;;;;;;106.53;46.20;;;;;;;2.32;100.00;97714.16;4822363;29;20282;-65
2021/12/24 10:17:22;;;;;;;109.83;47.40;;;;;;;2.50;100.00;97713.84;4806002;29;20053;-68
2021/12/24 10:19:57;;;;;;;111.20;46.33;;;;;;;2.35;100.00;97707.72;4822399;29;20270;-64
2021/12/24 10:22:23;;;;;;;101.10;46.43;;;;;;;2.33;100.00;97714.97;4818479;29;20290;-64
2021/12/24 10:25:12;;;;;;;115.17;47.80;;;;;;;2.48;100.00;97703.47;4810890;29;20641;-64
2021/12/24 10:27:38;;;;;;;108.23;48.03;;;;;;;2.37;100.00;97696.00;4820695;29;20290;-64
2021/12/24 10:30:30;;;;;;;113.40;49.83;;;;;;;2.42;100.00;97695.47;4822002;29;20278;-65
2021/12/24 10:32:57;;;;;;;109.67;49.53;;;;;;;2.44;100.00;97685.53;4824935;29;20277;-64
2021/12/24 10:35:29;;;;;;;114.53;50.13;;;;;;;2.60;100.00;97682.75;4831645;29;20758;-64
2021/12/24 10:38:13;;;;;;;127.53;54.07;;;;;;;2.67;100.00;97681.00;4821056;29;20811;-67
2021/12/24 10:40:53;;;;;;;119.75;53.70;;;;;;;2.65;100.00;97680.38;4805996;29;20281;-60
2021/12/24 10:43:33;;;;;;;118.37;53.40;;;;;;;2.80;100.00;97675.09;4822111;29;20120;-62
2021/12/24 10:46:14;;;;;;;111.83;50.97;;;;;;;2.97;100.00;97666.00;4822034;29;20282;-63
2021/12/24 10:48:48;;;;;;;112.47;52.60;;;;;;;2.26;100.00;97687.72;4821883;29;20342;-64
2021/12/24 10:51:31;;;;;;;109.43;51.07;;;;;;;2.53;100.00;97674.75;4835972;29;20645;-65
2021/12/24 10:54:05;;;;;;;111.78;51.67;;;;;;;2.57;100.00;97677.00;4833899;29;20270;-65
2021/12/24 10:56:30;;;;;;;114.03;51.15;;;;;;;2.79;100.00;97679.53;4821979;29;20034;-64
2021/12/24 10:58:56;;;;;;;98.13;44.47;;;;;;;2.93;100.00;97675.25;4825215;29;20382;-64
2021/12/24 11:01:22;;;;;;;88.50;43.67;;;;;;;2.68;100.00;97679.19;4825462;29;20474;-65
2021/12/24 11:03:49;;;;;;;93.40;43.83;;;;;;;3.02;100.00;97657.50;4825102;29;20114;-64
2021/12/24 11:06:15;;;;;;;97.37;41.97;;;;;;;3.38;100.00;97655.69;4825237;29;20484;-65
2021/12/24 11:08:42;;;;;;;84.33;41.33;;;;;;;3.50;100.00;97656.84;4824991;29;20848;-63
2021/12/24 11:11:11;;;;;;;91.77;40.93;;;;;;;3.61;100.00;97653.69;4825178;29;20302;-63
2021/12/24 11:13:40;;;;;;;81.13;38.93;;;;;;;3.77;100.00;97655.28;4825035;29;20284;-64
2021/12/24 11:16:11;;;;;;;79.73;38.00;;;;;;;3.59;100.00;97660.16;4825051;29;20635;-64
2021/12/24 11:18:41;;;;;;;84.50;38.63;;;;;;;3.81;100.00;97661.78;4809234;29;20761;-64
2021/12/24 11:21:19;;;;;;;75.07;36.67;;;;;;;3.87;100.00;97666.34;4806969;29;20274;-65
2021/12/24 11:23:45;;;;;;;77.13;35.33;;;;;;;3.99;100.00;97658.72;4806840;29;20808;-66
2021/12/24 11:26:16;;;;;;;68.47;33.53;;;;;;;3.96;100.00;97653.81;4823434;29;20274;-65
2021/12/24 11:28:42;;;;;;;64.40;31.33;;;;;;;4.25;100.00;97637.78;4824664;29;20087;-65
2021/12/24 11:31:14;;;;;;;64.40;31.93;;;;;;;4.38;100.00;97649.44;4824784;29;20795;-64
2021/12/24 11:33:43;;;;;;;58.67;28.40;;;;;;;4.56;100.00;97645.28;4824604;29;20362;-66
2021/12/24 11:36:14;;;;;;;51.60;25.63;;;;;;;4.63;100.00;97634.72;4824969;29;20659;-64
2021/12/24 11:38:55;;;;;;;50.07;26.40;;;;;;;4.90;100.00;97636.50;4824643;29;20270;-64
2021/12/24 11:41:25;;;;;;;49.30;27.00;;;;;;;4.93;100.00;97627.34;4823374;29;20364;-63
2021/12/24 11:43:52;;;;;;;37.37;21.00;;;;;;;5.16;100.00;97630.50;4824384;29;20282;-64
2021/12/24 11:46:21;;;;;;;35.83;18.00;;;;;;;5.53;100.00;97631.00;4824457;29;20300;-65
2021/12/24 11:48:49;;;;;;;22.00;12.23;;;;;;;5.81;100.00;97637.75;4824372;29;20385;-65
2021/12/24 11:51:19;;;;;;;18.73;11.20;;;;;;;6.14;100.00;97629.84;4824536;29;20414;-65
2021/12/24 11:53:45;;;;;;;18.57;10.20;;;;;;;6.27;100.00;97625.53;4824417;29;20266;-64
2021/12/24 11:56:14;;;;;;;15.17;8.80;;;;;;;6.41;100.00;97635.94;4824620;29;20261;-64
2021/12/24 11:58:53;;;;;;;15.23;8.83;;;;;;;6.45;100.00;97639.00;4824390;29;20272;-64
2021/12/24 12:01:21;;;;;;;15.33;8.53;;;;;;;6.44;100.00;97624.09;4824542;29;20278;-65
2021/12/24 12:03:52;;;;;;;15.13;8.73;;;;;;;6.34;100.00;97619.22;4824159;29;20289;-64
2021/12/24 12:06:38;;;;;;;15.30;8.60;;;;;;;6.24;100.00;97628.59;4824444;29;20306;-64
2021/12/24 12:09:07;;;;;;;15.70;8.67;;;;;;;6.35;100.00;97628.78;4823295;29;20668;-64
2021/12/24 12:11:35;;;;;;;13.80;8.70;;;;;;;6.31;100.00;97624.94;4824604;29;20341;-64
2021/12/24 12:14:13;;;;;;;16.37;9.23;;;;;;;6.27;100.00;97626.38;4824387;29;20957;-65
2021/12/24 12:16:39;;;;;;;15.47;9.33;;;;;;;6.18;100.00;97624.94;4824039;29;20274;-65
2021/12/24 12:19:29;;;;;;;15.03;8.60;;;;;;;6.11;100.00;97627.63;4807047;29;20282;-65
2021/12/24 12:24:57;;;;;;;14.37;8.80;;;;;;;6.16;100.00;97619.03;4806109;29;20361;-64
2021/12/24 12:27:45;;;;;;;13.57;8.30;;;;;;;6.13;100.00;97619.44;4804468;29;20279;-64
2021/12/24 12:30:17;;;;;;;13.43;8.03;;;;;;;6.18;100.00;97619.66;4805686;29;20281;-65
2021/12/24 12:32:43;;;;;;;12.93;7.80;;;;;;;6.15;100.00;97612.91;4805911;29;20270;-65
2021/12/24 12:35:09;;;;;;;12.70;8.30;;;;;;;6.15;100.00;97599.66;4804734;29;20357;-65
2021/12/24 12:37:45;;;;;;;15.33;8.77;;;;;;;6.22;100.00;97604.16;4805676;29;20509;-65
2021/12/24 12:40:17;;;;;;;12.43;7.07;;;;;;;6.26;100.00;97603.50;4805826;29;20305;-65
2021/12/24 12:42:48;;;;;;;11.63;7.87;;;;;;;6.29;100.00;97605.75;4805755;29;20277;-65
2021/12/24 12:45:15;;;;;;;13.43;7.40;;;;;;;6.27;100.00;97604.31;4821341;29;20377;-65
2021/12/24 12:47:58;;;;;;;12.63;7.27;;;;;;;6.32;100.00;97609.84;4823762;29;20739;-65
2021/12/24 12:50:25;;;;;;;12.95;7.65;;;;;;;6.30;100.00;97598.63;4823722;29;20265;-65
2021/12/24 12:52:58;;;;;;;12.53;7.80;;;;;;;6.35;100.00;97599.59;4825283;29;20035;-68
2021/12/24 12:55:34;;;;;;;12.32;7.30;;;;;;;6.43;100.00;97602.06;4814790;29;20281;-65
2021/12/24 12:58:19;;;;;;;11.50;6.67;;;;;;;6.39;100.00;97607.97;4827859;29;20026;-66
2021/12/24 13:01:04;;;;;;;16.10;9.33;;;;;;;6.29;100.00;97595.16;4818568;29;20753;-65
2021/12/24 13:03:33;;;;;;;12.07;8.27;;;;;;;6.47;100.00;97597.13;4829853;29;20285;-65
2021/12/24 13:06:05;;;;;;;11.00;7.37;;;;;;;6.57;100.00;97589.59;4820725;29;20282;-65